Villard, MN (56385)

6:58 PM CDT on July 25, 2014 (GMT -0500)
Sauk Centre (KMNSAUKC3) Elev 1253 ft | 45.74 °N, 94.96 °W | Change Station

Current weather conditions updated 4 seconds ago

Overcast
Overcast
77.9 °F
Feels Like 80 °F
N
1.6
Wind Variable Wind from West
Gusts 3.1 mph

Tomorrow is forecast to be nearly the same temperature as today.

Today
High -- | Low -- °F
--% Chance of Precip.
Yesterday
High -- | Low -- °F
Precip. -- in
5:55 AM 8:57 PM
Waning Crescent, 1% visible
Pressure 29.77 in
Visibility 10.0 miles
Clouds Mostly Cloudy 2800 ft
Overcast 3900 ft
Heat Index 80 °F
Dew Point 68 °F
Humidity 71%
Rainfall 0.27 in
Snow Depth Not available.
UV 0 out of 12
Pollen 1.50 out of 12
Air Quality Not available.
Flu Activity Not available.
METAR KD39 252353Z AUTO 00000KT 10SM BKN028 OVC039 24/20 A2977 RMK AO2 T02420201 10252 20240

More Conditions Fewer Conditions

Pressure 29.77 in
Visibility 10.0 miles
Clouds Mostly Cloudy 2800 ft
Overcast 3900 ft
Heat Index 80 °F
Dew Point 68 °F
Humidity 71%
Rainfall 0.27 in
Snow Depth Not available.
UV 0 out of 12
Pollen 1.50 out of 12
Air Quality Not available.
Flu Activity Not available.
METAR KD39 252353Z AUTO 00000KT 10SM BKN028 OVC039 24/20 A2977 RMK AO2 T02420201 10252 20240

More Conditions Fewer Conditions

10-Day Weather Forecast

Almanac

Astronomy

Jul. 25, 2014 Rise Set
Actual Time 5:55 AM CDT 8:57 PM CDT
Civil Twilight 5:20 AM CDT 9:32 PM CDT
Nautical Twilight 4:35 AM CDT 10:17 PM CDT
Astronomical Twilight 3:40 AM CDT 11:11 PM CDT
Moon 4:58 AM CDT 7:51 PM CDT
Length of Visible Light 16h 11m
Length of Day
15h 01m
Tomorrow will be 2m 14s shorter.
Waning Crescent, 1% of the Moon is Illuminated
Today
Waning Crescent
Jul 26
New
Aug 3
First Quarter
Aug 10
Full
Aug 17
Last Quarter

Today's Extremes

State Highs State Lows

Community

WunderPhotos

Upload Photos

1,737,450 photos uploaded!

Nearby

Snow Depth

Station Depth Elevation
No new snow has been reported.

Earthquake Activity

City Distance Mag. Time & Date
No recent earthquake activity has been reported nearby.
Minimum magnitude displayed is 2.5.

Coastal Water Temperatures

Place Temperature
No Stations Reporting

Nearby Weather Stations

Station Location Temp. Heat Index Dew Point Humidity Wind Precip. Elev Updated Type
Sauk Centre, Sauk Centre, MN 77.9 °F 80 °F 68 °F 71% West  at  1.6 mph 0.00 in / hr 1253 ft 6:58 PM CDT Rapid Fire
KMGK (Magic 107.1) FM, Glenwood, MN 78.4 °F 81 °F 71 °F 77% NW  at  3.0 mph 0.00 in / hr 1168 ft 6:58 PM CDT Rapid Fire
Grey Eagle, MN 77.2 °F 79 °F 70 °F 79% West  at  0.0 mph - / hr 1214 ft 6:45 PM CDT Normal

Show More Stations Show Fewer Stations